Time;durP1;ratioP1;P1;durP2;ratioP2;P2;SDS_P1;SDS_P2;PMS_P1;PMS_P2;Temp;Humidity;BMP_temperature;BMP_pressure;BME280_temperature;BME280_humidity;BME280_pressure;Samples;Min_cycle;Max_cycle;Signal;HPM_P1;HPM_P2
2023/05/17 00:02:49;;;;;;;20.33;9.57;;;;;;;13.53;100.00;99570.66;5529385;32;34151;-74
2023/05/17 00:05:55;;;;;;;20.35;9.23;;;;;;;13.52;100.00;99571.69;5529159;32;33801;-74
2023/05/17 00:09:02;;;;;;;19.37;9.52;;;;;;;13.54;100.00;99574.97;5529385;32;34046;-74
2023/05/17 00:12:11;;;;;;;18.50;9.13;;;;;;;13.53;100.00;99571.50;5529296;32;34119;-74
2023/05/17 00:15:17;;;;;;;17.42;9.35;;;;;;;13.54;100.00;99586.47;5529279;32;33718;-75
2023/05/17 00:18:25;;;;;;;17.15;9.20;;;;;;;13.55;100.00;99587.28;5529272;32;33928;-74
2023/05/17 00:21:32;;;;;;;17.00;9.27;;;;;;;13.56;100.00;99586.22;5529111;32;33882;-74
2023/05/17 00:24:38;;;;;;;21.12;9.77;;;;;;;13.56;100.00;99588.91;5529083;32;34572;-74
2023/05/17 00:27:44;;;;;;;19.70;9.38;;;;;;;13.57;100.00;99585.22;5529012;32;34278;-75
2023/05/17 00:30:52;;;;;;;25.00;11.30;;;;;;;13.52;100.00;99574.34;5529096;32;33639;-75
2023/05/17 00:33:59;;;;;;;21.25;10.52;;;;;;;13.48;100.00;99571.28;5528926;32;33877;-75
2023/05/17 00:37:07;;;;;;;21.02;9.95;;;;;;;13.43;100.00;99571.09;5528971;32;33930;-74
2023/05/17 00:40:15;;;;;;;16.73;9.98;;;;;;;13.39;100.00;99568.03;5528990;32;34831;-74
2023/05/17 00:43:22;;;;;;;19.95;9.77;;;;;;;13.39;100.00;99568.03;5528966;32;34814;-74
2023/05/17 00:46:30;;;;;;;17.75;9.88;;;;;;;13.36;100.00;99570.28;5527406;32;34623;-74
2023/05/17 00:49:42;;;;;;;19.40;9.48;;;;;;;13.39;100.00;99564.53;5528976;32;33870;-74
2023/05/17 00:52:51;;;;;;;18.17;10.57;;;;;;;13.36;100.00;99559.63;5528658;32;34090;-75
2023/05/17 00:55:59;;;;;;;18.37;9.43;;;;;;;13.31;100.00;99565.53;5528945;32;33868;-74
2023/05/17 00:59:06;;;;;;;21.73;10.00;;;;;;;13.25;100.00;99568.22;5528886;32;34354;-74
2023/05/17 01:02:12;;;;;;;23.17;10.90;;;;;;;13.24;100.00;99574.56;5528922;32;33975;-74
2023/05/17 01:05:19;;;;;;;20.50;10.32;;;;;;;13.20;100.00;99576.84;5528688;32;34499;-74
2023/05/17 01:08:26;;;;;;;23.02;9.80;;;;;;;13.11;100.00;99586.03;5528699;32;33823;-74
2023/05/17 01:11:59;;;;;;;19.15;9.13;;;;;;;13.05;100.00;99586.81;5528774;32;35271;-74
2023/05/17 01:15:14;;;;;;;21.37;9.80;;;;;;;13.01;100.00;99591.72;5528684;32;34501;-74
2023/05/17 01:19:07;;;;;;;17.25;9.35;;;;;;;12.94;100.00;99588.22;5528500;32;34284;-74
2023/05/17 01:22:44;;;;;;;23.60;10.23;;;;;;;12.88;100.00;99582.87;5527799;32;34617;-74
2023/05/17 01:26:14;;;;;;;21.98;10.07;;;;;;;12.92;100.00;99584.16;5527536;32;34136;-73
2023/05/17 01:29:25;;;;;;;15.93;9.50;;;;;;;12.97;100.00;99577.16;5527939;32;33575;-73
2023/05/17 01:32:37;;;;;;;16.70;9.88;;;;;;;13.03;100.00;99572.88;5528824;32;34425;-73
2023/05/17 01:35:44;;;;;;;24.12;10.52;;;;;;;13.04;100.00;99571.84;5528469;32;34836;-73
2023/05/17 01:38:51;;;;;;;19.40;10.40;;;;;;;13.05;100.00;99563.69;5528875;32;35338;-73
2023/05/17 01:42:14;;;;;;;22.48;10.18;;;;;;;13.06;100.00;99564.50;5528380;32;34288;-73
2023/05/17 01:45:35;;;;;;;20.73;10.77;;;;;;;13.07;100.00;99563.44;5528228;32;34519;-74
2023/05/17 01:48:55;;;;;;;18.00;10.68;;;;;;;13.24;100.00;99570.06;5527567;32;34819;-74
2023/05/17 01:52:16;;;;;;;18.42;9.88;;;;;;;13.34;100.00;99567.00;5528288;32;33719;-75
2023/05/17 01:55:44;;;;;;;21.12;11.12;;;;;;;13.43;100.00;99557.75;5528231;32;33858;-74
2023/05/17 01:58:53;;;;;;;25.40;11.70;;;;;;;13.49;100.00;99555.09;5526881;32;34757;-74
2023/05/17 02:02:07;;;;;;;25.83;11.10;;;;;;;13.51;100.00;99546.88;5528200;32;34567;-74
2023/05/17 02:05:15;;;;;;;22.55;11.65;;;;;;;13.44;100.00;99549.56;5528056;32;34502;-74
2023/05/17 02:08:21;;;;;;;20.17;11.23;;;;;;;13.39;100.00;99556.53;5528184;32;34402;-74
2023/05/17 02:11:28;;;;;;;21.58;11.93;;;;;;;13.31;100.00;99551.44;5528092;32;33547;-75
2023/05/17 02:14:33;;;;;;;24.65;11.73;;;;;;;13.24;100.00;99562.06;5528000;32;33717;-74
2023/05/17 02:17:43;;;;;;;24.65;11.75;;;;;;;13.20;100.00;99571.50;5528033;32;34218;-74
2023/05/17 02:20:51;;;;;;;19.63;10.67;;;;;;;13.14;100.00;99561.66;5527449;32;33748;-73
2023/05/17 02:24:00;;;;;;;23.55;10.77;;;;;;;13.22;100.00;99557.97;5528008;32;33945;-73
2023/05/17 02:27:08;;;;;;;25.50;11.50;;;;;;;13.17;100.00;99563.12;5527603;32;33767;-74
2023/05/17 02:30:15;;;;;;;20.88;10.10;;;;;;;13.12;100.00;99570.88;5527613;32;34652;-74
2023/05/17 02:33:24;;;;;;;21.55;10.20;;;;;;;13.08;100.00;99573.09;5527549;32;33906;-73
2023/05/17 02:36:32;;;;;;;19.70;11.25;;;;;;;13.05;100.00;99582.31;5527640;32;34497;-73
2023/05/17 02:39:41;;;;;;;23.55;11.50;;;;;;;13.06;100.00;99591.94;5527692;32;33766;-73
2023/05/17 02:42:49;;;;;;;25.50;10.88;;;;;;;13.12;100.00;99600.97;5527537;32;33586;-74
2023/05/17 02:45:56;;;;;;;27.77;11.90;;;;;;;13.13;100.00;99604.47;5526585;32;34553;-74
2023/05/17 02:49:04;;;;;;;23.62;10.98;;;;;;;13.12;100.00;99603.63;5527473;32;34507;-74
2023/05/17 02:52:09;;;;;;;24.42;10.88;;;;;;;13.11;100.00;99598.50;5527254;32;33788;-74
2023/05/17 02:55:16;;;;;;;19.80;10.50;;;;;;;13.10;100.00;99603.00;5527328;32;33820;-74
2023/05/17 02:58:24;;;;;;;26.45;11.02;;;;;;;13.11;100.00;99614.47;5527213;32;33538;-74
2023/05/17 03:01:34;;;;;;;20.62;10.77;;;;;;;13.04;100.00;99606.47;5527000;32;34062;-74
2023/05/17 03:04:41;;;;;;;21.50;10.32;;;;;;;13.14;100.00;99598.13;5527111;32;33614;-74
2023/05/17 03:07:46;;;;;;;26.10;11.75;;;;;;;13.12;100.00;99600.97;5527031;32;33712;-74
2023/05/17 03:10:55;;;;;;;25.33;11.38;;;;;;;13.17;100.00;99611.84;5528449;32;33712;-74
2023/05/17 03:14:01;;;;;;;25.17;10.98;;;;;;;13.21;100.00;99609.63;5529737;32;35666;-74
2023/05/17 03:17:08;;;;;;;22.50;10.55;;;;;;;13.22;100.00;99606.72;5529787;32;34542;-73
2023/05/17 03:20:15;;;;;;;23.48;11.35;;;;;;;13.25;100.00;99605.50;5529710;32;33933;-74
2023/05/17 03:23:22;;;;;;;22.35;10.85;;;;;;;13.30;100.00;99609.22;5529713;32;33665;-74
2023/05/17 03:26:30;;;;;;;24.02;10.85;;;;;;;13.33;100.00;99616.78;5529550;32;33609;-74
2023/05/17 03:29:38;;;;;;;29.33;11.70;;;;;;;13.41;100.00;99623.75;5529507;32;33779;-74
2023/05/17 03:32:45;;;;;;;22.70;11.40;;;;;;;13.41;100.00;99621.91;5529379;32;34020;-74
2023/05/17 03:35:52;;;;;;;23.00;11.65;;;;;;;13.43;100.00;99619.87;5529527;32;34332;-74
2023/05/17 03:38:58;;;;;;;25.98;11.35;;;;;;;13.47;100.00;99623.75;5529563;32;34889;-74
2023/05/17 03:42:03;;;;;;;28.75;12.23;;;;;;;13.51;100.00;99620.69;5529540;32;33563;-75
2023/05/17 03:45:10;;;;;;;23.83;11.95;;;;;;;13.53;100.00;99616.78;5528669;32;33666;-75
2023/05/17 03:48:17;;;;;;;22.60;11.07;;;;;;;13.58;100.00;99621.50;5529323;32;34420;-76
2023/05/17 03:51:23;;;;;;;28.90;11.88;;;;;;;13.65;100.00;99638.31;5529469;32;34811;-77
2023/05/17 03:54:31;;;;;;;21.02;11.02;;;;;;;13.69;100.00;99653.69;5529297;32;33858;-77
2023/05/17 03:57:37;;;;;;;25.67;11.23;;;;;;;13.75;100.00;99654.69;5529372;32;34850;-76
2023/05/17 04:00:44;;;;;;;22.73;10.98;;;;;;;13.86;100.00;99657.56;5529424;32;33632;-76
2023/05/17 04:03:52;;;;;;;21.87;10.63;;;;;;;13.94;100.00;99668.03;5529182;32;34017;-77
2023/05/17 04:06:59;;;;;;;23.23;11.30;;;;;;;13.94;100.00;99661.91;5529290;32;33833;-76
2023/05/17 04:10:06;;;;;;;28.75;11.10;;;;;;;13.96;100.00;99662.50;5529221;32;33852;-77
2023/05/17 04:13:12;;;;;;;20.23;10.25;;;;;;;13.99;100.00;99658.59;5529306;32;33930;-77
2023/05/17 04:16:21;;;;;;;22.33;10.50;;;;;;;13.98;100.00;99656.97;5529409;32;33903;-77
2023/05/17 04:19:31;;;;;;;22.13;10.50;;;;;;;14.00;100.00;99663.72;5529255;32;33969;-77
2023/05/17 04:22:41;;;;;;;20.90;10.27;;;;;;;14.06;100.00;99675.41;5528772;32;34280;-77
2023/05/17 04:25:48;;;;;;;26.85;11.45;;;;;;;14.12;100.00;99672.75;5529117;32;33662;-77
2023/05/17 04:28:56;;;;;;;23.08;10.40;;;;;;;14.11;100.00;99670.25;5529016;32;35237;-76
2023/05/17 04:32:04;;;;;;;18.12;9.98;;;;;;;14.20;100.00;99677.03;5527984;32;34816;-76
2023/05/17 04:35:18;;;;;;;23.40;10.65;;;;;;;14.27;100.00;99683.19;5528642;32;34709;-76
2023/05/17 04:38:25;;;;;;;20.80;10.93;;;;;;;14.44;100.00;99675.56;5528796;32;33130;-76
2023/05/17 04:41:32;;;;;;;27.58;11.43;;;;;;;14.33;100.00;99690.31;5528765;32;34332;-77
2023/05/17 04:44:37;;;;;;;22.35;10.80;;;;;;;14.50;100.00;99702.25;5528812;32;34042;-76
2023/05/17 04:47:44;;;;;;;19.33;10.20;;;;;;;14.61;100.00;99712.28;5528760;32;34712;-76
2023/05/17 04:50:51;;;;;;;18.77;9.15;;;;;;;14.61;100.00;99717.63;5528972;32;34422;-76
2023/05/17 04:53:59;;;;;;;18.37;9.55;;;;;;;14.69;100.00;99721.88;5537202;32;33862;-75
2023/05/17 04:57:05;;;;;;;23.80;9.35;;;;;;;14.85;100.00;99729.44;5548200;32;35264;-75
2023/05/17 05:00:14;;;;;;;19.65;8.93;;;;;;;14.87;100.00;99735.38;5540873;32;34583;-76
2023/05/17 05:03:22;;;;;;;18.92;8.70;;;;;;;15.01;100.00;99728.94;5533614;32;34921;-76
2023/05/17 05:06:40;;;;;;;17.15;8.60;;;;;;;15.22;100.00;99727.84;5546789;32;34742;-77
2023/05/17 05:09:46;;;;;;;19.67;9.00;;;;;;;15.11;100.00;99721.31;5546802;32;32690;-78
2023/05/17 05:12:52;;;;;;;23.30;8.57;;;;;;;15.14;100.00;99733.44;5547730;32;34036;-76
2023/05/17 05:16:04;;;;;;;19.27;8.77;;;;;;;15.24;100.00;99736.47;5547498;32;33696;-76
2023/05/17 05:19:11;;;;;;;29.02;8.40;;;;;;;15.29;100.00;99728.63;5547781;32;33637;-76
2023/05/17 05:22:19;;;;;;;18.83;9.07;;;;;;;15.32;100.00;99732.72;5544896;32;33899;-75
2023/05/17 05:25:40;;;;;;;14.85;8.50;;;;;;;15.21;100.00;99729.69;5534255;32;33495;-75
2023/05/17 05:28:48;;;;;;;16.83;9.40;;;;;;;15.05;100.00;99729.38;5528089;32;33814;-75
2023/05/17 05:31:59;;;;;;;21.85;10.05;;;;;;;15.04;100.00;99736.56;5524405;32;33575;-77
2023/05/17 05:35:04;;;;;;;22.62;13.70;;;;;;;15.24;100.00;99739.12;5526200;32;33832;-76
2023/05/17 05:38:11;;;;;;;26.17;13.32;;;;;;;15.26;100.00;99729.03;5537003;32;33764;-76
2023/05/17 05:41:14;;;;;;;20.30;12.18;;;;;;;15.42;100.00;99733.91;5543120;32;34351;-76
2023/05/17 05:44:19;;;;;;;25.95;13.07;;;;;;;15.83;100.00;99741.44;5546808;32;33531;-77
2023/05/17 05:47:25;;;;;;;23.45;12.95;;;;;;;16.07;100.00;99753.22;5546890;32;34627;-76
2023/05/17 05:50:29;;;;;;;21.67;11.70;;;;;;;16.33;100.00;99750.31;5546446;32;33590;-76
2023/05/17 05:53:34;;;;;;;23.12;10.43;;;;;;;16.66;100.00;99744.63;5546332;32;33876;-77
2023/05/17 05:56:39;;;;;;;16.20;10.18;;;;;;;16.83;100.00;99747.56;5546935;32;35135;-77
2023/05/17 05:59:45;;;;;;;20.67;9.57;;;;;;;16.99;100.00;99754.19;5547059;32;34498;-76
2023/05/17 06:02:52;;;;;;;19.50;8.82;;;;;;;16.97;100.00;99756.25;5546165;32;33902;-76
2023/05/17 06:05:56;;;;;;;20.67;9.18;;;;;;;16.95;100.00;99751.13;5546492;32;33946;-76
2023/05/17 06:09:00;;;;;;;18.50;8.82;;;;;;;16.94;100.00;99755.66;5537546;32;34548;-78
2023/05/17 06:12:04;;;;;;;21.30;9.43;;;;;;;16.79;100.00;99749.06;5547164;32;33894;-76
2023/05/17 06:15:08;;;;;;;22.62;9.50;;;;;;;16.69;100.00;99759.47;5543932;32;33903;-78
2023/05/17 06:18:12;;;;;;;20.50;9.55;;;;;;;16.39;100.00;99756.63;5540887;32;33937;-76
2023/05/17 06:21:17;;;;;;;20.62;9.23;;;;;;;16.08;100.00;99754.84;5537242;32;33788;-71
2023/05/17 06:24:20;;;;;;;17.87;9.65;;;;;;;16.18;100.00;99765.06;5532642;32;34004;-77
2023/05/17 06:27:25;;;;;;;24.42;10.30;;;;;;;15.95;100.00;99768.34;5541919;32;33745;-79
2023/05/17 06:30:29;;;;;;;26.20;10.75;;;;;;;15.82;100.00;99768.44;5539055;32;34645;-77
2023/05/17 06:33:33;;;;;;;15.15;9.73;;;;;;;15.64;100.00;99774.50;5532943;32;33933;-78
2023/05/17 06:36:37;;;;;;;20.55;10.88;;;;;;;15.57;100.00;99771.06;5544574;32;34056;-77
2023/05/17 06:39:41;;;;;;;21.08;11.27;;;;;;;15.51;100.00;99782.59;5545916;32;33994;-77
2023/05/17 06:42:57;;;;;;;20.05;11.38;;;;;;;15.55;100.00;99773.13;5546943;32;33858;-76
2023/05/17 06:46:04;;;;;;;21.95;11.52;;;;;;;15.43;100.00;99777.47;5548488;32;33911;-77
2023/05/17 06:49:08;;;;;;;26.37;11.02;;;;;;;15.47;100.00;99784.03;5542069;32;33861;-72
2023/05/17 06:52:11;;;;;;;17.30;10.40;;;;;;;15.71;100.00;99780.63;5546751;32;34424;-76
2023/05/17 06:55:15;;;;;;;22.70;10.65;;;;;;;15.60;100.00;99794.69;5542278;32;34273;-77
2023/05/17 06:58:19;;;;;;;20.27;10.00;;;;;;;15.60;100.00;99789.34;5547176;32;34608;-76
2023/05/17 07:01:24;;;;;;;18.37;10.75;;;;;;;15.92;100.00;99782.16;5549398;32;33636;-77
2023/05/17 07:04:28;;;;;;;28.52;11.02;;;;;;;15.86;100.00;99799.06;5548811;32;34207;-78
2023/05/17 07:07:32;;;;;;;15.63;10.40;;;;;;;15.81;100.00;99793.53;5547974;32;33580;-77
2023/05/17 07:10:36;;;;;;;21.40;10.63;;;;;;;15.94;100.00;99804.13;5548799;32;34053;-73
2023/05/17 07:13:40;;;;;;;20.17;10.82;;;;;;;16.02;100.00;99809.25;5550994;32;34561;-78
2023/05/17 07:16:44;;;;;;;15.80;10.48;;;;;;;15.80;100.00;99818.63;5549365;32;34219;-79
2023/05/17 07:19:49;;;;;;;20.80;11.77;;;;;;;15.81;100.00;99830.97;5551276;32;34103;-78
2023/05/17 07:22:53;;;;;;;18.65;11.25;;;;;;;15.90;100.00;99811.78;5550729;32;33901;-79
2023/05/17 07:25:57;;;;;;;27.35;12.65;;;;;;;15.98;100.00;99814.19;5542691;32;33713;-77
2023/05/17 07:29:00;;;;;;;20.52;12.18;;;;;;;15.95;100.00;99819.16;5544931;32;34071;-77
2023/05/17 07:32:04;;;;;;;19.67;12.18;;;;;;;16.03;100.00;99817.03;5529532;32;33994;-76
2023/05/17 07:35:08;;;;;;;23.67;12.15;;;;;;;16.08;100.00;99817.22;5533328;32;33845;-79
2023/05/17 07:38:12;;;;;;;24.35;12.13;;;;;;;16.05;100.00;99822.19;5548701;32;33586;-78
2023/05/17 07:41:21;;;;;;;20.20;11.35;;;;;;;16.07;100.00;99830.81;5549086;32;34043;-78
2023/05/17 07:44:26;;;;;;;22.83;11.90;;;;;;;16.05;100.00;99822.19;5543034;32;33808;-78
2023/05/17 07:47:32;;;;;;;23.15;11.18;;;;;;;16.11;100.00;99818.66;5547947;32;34609;-78
2023/05/17 07:50:36;;;;;;;22.30;11.32;;;;;;;15.87;100.00;99822.09;5548119;32;34488;-76
2023/05/17 07:53:40;;;;;;;23.15;11.48;;;;;;;15.94;100.00;99820.19;5548403;32;34010;-78
2023/05/17 07:56:44;;;;;;;27.55;11.98;;;;;;;15.94;100.00;99826.37;5547670;32;33417;-77
2023/05/17 07:59:48;;;;;;;21.10;10.98;;;;;;;16.08;100.00;99825.22;5548126;32;33747;-78
2023/05/17 08:02:51;;;;;;;15.45;10.32;;;;;;;16.06;100.00;99827.31;5548127;32;33866;-76
2023/05/17 08:05:54;;;;;;;22.10;10.75;;;;;;;16.36;100.00;99827.47;5548170;32;33772;-74
2023/05/17 08:08:58;;;;;;;21.70;10.73;;;;;;;16.40;100.00;99831.38;5548111;32;34704;-75
2023/05/17 08:12:02;;;;;;;24.37;11.63;;;;;;;15.92;100.00;99830.31;5548665;32;33970;-75
2023/05/17 08:15:06;;;;;;;21.58;11.57;;;;;;;16.02;100.00;99830.66;5548454;32;34091;-75
2023/05/17 08:18:10;;;;;;;21.27;11.68;;;;;;;15.81;100.00;99839.81;5548419;32;34554;-78
2023/05/17 08:21:13;;;;;;;22.87;10.95;;;;;;;15.71;100.00;99847.50;5534995;32;33870;-76
2023/05/17 08:24:17;;;;;;;28.95;12.20;;;;;;;15.74;100.00;99849.72;5539823;32;34016;-78
2023/05/17 08:27:20;;;;;;;27.95;12.43;;;;;;;15.35;100.00;99849.88;5546481;32;33565;-77
2023/05/17 08:30:24;;;;;;;24.73;13.00;;;;;;;15.25;100.00;99852.19;5538227;32;34000;-76
2023/05/17 08:33:31;;;;;;;25.35;13.02;;;;;;;15.38;100.00;99854.81;5527913;32;33760;-76
2023/05/17 08:36:35;;;;;;;31.37;13.55;;;;;;;15.45;100.00;99848.41;5528738;32;34825;-77
2023/05/17 08:39:38;;;;;;;23.25;12.50;;;;;;;15.65;100.00;99853.69;5528893;32;33906;-75
2023/05/17 08:42:42;;;;;;;30.52;13.07;;;;;;;15.62;100.00;99860.28;5544531;32;34773;-76
2023/05/17 08:45:45;;;;;;;26.02;12.30;;;;;;;15.75;100.00;99848.69;5548104;32;33839;-77
2023/05/17 08:48:50;;;;;;;18.48;11.57;;;;;;;15.88;100.00;99855.81;5547012;32;34062;-75
2023/05/17 08:51:58;;;;;;;20.42;11.90;;;;;;;15.98;100.00;99850.81;5536434;32;33694;-74
2023/05/17 08:55:04;;;;;;;19.52;11.25;;;;;;;16.01;100.00;99861.94;5538556;32;34030;-78
2023/05/17 08:58:08;;;;;;;22.35;11.30;;;;;;;15.82;100.00;99854.03;5538242;32;33756;-75
2023/05/17 09:01:11;;;;;;;21.70;12.13;;;;;;;15.82;100.00;99856.69;5537557;32;34302;-75
2023/05/17 09:04:16;;;;;;;19.58;11.20;;;;;;;15.91;100.00;99856.22;5546453;32;33804;-76
2023/05/17 09:07:20;;;;;;;20.60;11.18;;;;;;;15.88;100.00;99856.63;5548280;32;34506;-76
2023/05/17 09:10:24;;;;;;;22.90;10.93;;;;;;;15.79;100.00;99857.09;5542672;32;34433;-78
2023/05/17 09:13:27;;;;;;;24.92;11.98;;;;;;;15.83;100.00;99851.13;5528763;32;33898;-78
2023/05/17 09:16:32;;;;;;;24.27;11.70;;;;;;;15.83;100.00;99851.13;5528528;32;35226;-77
2023/05/17 09:19:42;;;;;;;21.05;12.35;;;;;;;15.95;100.00;99852.09;5530493;32;34609;-77
2023/05/17 09:22:47;;;;;;;;;;;;;;;15.96;100.00;99850.22;5537739;32;33922;-80
2023/05/17 09:25:50;;;;;;;21.05;11.77;;;;;;;16.07;100.00;99849.56;5535309;32;34283;-79
2023/05/17 09:28:53;;;;;;;15.80;10.65;;;;;;;16.03;100.00;99845.66;5542605;32;34451;-78
2023/05/17 09:32:10;;;;;;;17.50;11.12;;;;;;;16.23;100.00;99859.72;5547784;32;34137;-77
2023/05/17 09:35:15;;;;;;;17.08;11.05;;;;;;;16.52;100.00;99848.37;5548200;32;33912;-77
2023/05/17 09:38:26;;;;;;;14.55;10.13;;;;;;;16.87;100.00;99859.41;5548756;32;34774;-77
2023/05/17 09:41:30;;;;;;;;;;;;;;;17.03;100.00;99862.56;5547768;32;33791;-73
2023/05/17 09:44:45;;;;;;;21.45;10.40;;;;;;;17.25;100.00;99869.94;5548557;32;34991;-77
2023/05/17 09:47:48;;;;;;;16.37;10.15;;;;;;;17.41;100.00;99867.69;5548873;32;34171;-78
2023/05/17 09:50:51;;;;;;;16.23;10.00;;;;;;;17.70;100.00;99873.16;5549184;32;33741;-78
2023/05/17 09:53:58;;;;;;;20.65;9.85;;;;;;;17.79;100.00;99882.50;5551408;32;33986;-75
2023/05/17 09:57:08;;;;;;;15.02;9.23;;;;;;;17.53;100.00;99882.81;5550606;32;34584;-75
2023/05/17 10:00:12;;;;;;;13.60;9.10;;;;;;;17.37;100.00;99881.56;5548833;32;33069;-74
2023/05/17 10:03:16;;;;;;;15.05;9.32;;;;;;;17.67;100.00;99892.34;5546640;32;34355;-76
2023/05/17 10:06:22;;;;;;;12.98;9.23;;;;;;;17.70;100.00;99891.09;5547881;32;33925;-79
2023/05/17 10:09:47;;;;;;;20.98;9.05;;;;;;;17.47;100.00;99891.78;5538998;32;34747;-74
2023/05/17 10:12:52;;;;;;;16.62;9.70;;;;;;;17.51;100.00;99890.28;5530941;32;34626;-81
2023/05/17 10:15:56;;;;;;;15.40;8.20;;;;;;;17.97;100.00;99891.56;5528755;32;34512;-74
2023/05/17 10:19:00;;;;;;;11.75;8.35;;;;;;;18.30;100.00;99899.94;5546477;32;34839;-75
2023/05/17 10:22:06;;;;;;;11.25;7.87;;;;;;;18.41;100.00;99899.16;5549950;32;33819;-78
2023/05/17 10:25:25;;;;;;;13.20;7.83;;;;;;;19.38;100.00;99899.56;5546823;32;33566;-74
2023/05/17 10:28:30;;;;;;;16.73;7.65;;;;;;;19.70;100.00;99902.72;5547228;32;33755;-74
2023/05/17 10:31:33;;;;;;;12.70;7.45;;;;;;;19.54;100.00;99901.56;5547425;32;33880;-76
2023/05/17 10:34:38;;;;;;;14.43;6.85;;;;;;;19.76;100.00;99901.72;5546728;32;33657;-78
2023/05/17 10:37:41;;;;;;;10.90;6.43;;;;;;;20.32;100.00;99904.47;5546522;32;34871;-77
2023/05/17 10:40:47;;;;;;;14.25;6.80;;;;;;;21.07;100.00;99908.59;5546731;32;33513;-76
2023/05/17 10:43:52;;;;;;;11.40;6.60;;;;;;;22.53;100.00;99912.28;5541152;32;33827;-74
2023/05/17 10:47:03;;;;;;;10.13;6.00;;;;;;;21.63;100.00;99908.34;5546035;32;32301;-77
2023/05/17 10:50:11;;;;;;;16.10;6.00;;;;;;;22.50;100.00;99912.81;5545947;32;33763;-77
2023/05/17 10:53:15;;;;;;;10.57;5.15;;;;;;;23.77;100.00;99920.69;5546064;32;34069;-77
2023/05/17 10:56:20;;;;;;;11.75;5.20;;;;;;;24.79;84.50;99932.56;5546832;32;34099;-78
2023/05/17 10:59:28;;;;;;;11.25;5.53;;;;;;;23.53;93.46;99913.31;5544878;32;34595;-73
2023/05/17 11:02:31;;;;;;;11.02;6.15;;;;;;;23.03;100.00;99919.19;5537095;32;34330;-72
2023/05/17 11:05:43;;;;;;;11.68;5.90;;;;;;;21.91;100.00;99928.09;5547597;32;33273;-73
2023/05/17 11:09:06;;;;;;;;;;;;;;;20.83;100.00;99930.38;5545597;32;33896;-74
2023/05/17 11:12:11;;;;;;;10.35;5.50;;;;;;;20.34;100.00;99933.84;5546024;32;34748;-71
2023/05/17 11:15:21;;;;;;;9.38;5.10;;;;;;;19.10;100.00;99933.41;5546037;32;34600;-72
2023/05/17 11:18:25;;;;;;;10.57;4.85;;;;;;;19.34;100.00;99933.37;5545864;32;34045;-72
2023/05/17 11:21:35;;;;;;;10.83;4.33;;;;;;;19.34;100.00;99930.69;5546160;32;33750;-73
2023/05/17 11:24:43;;;;;;;9.02;4.40;;;;;;;19.77;100.00;99925.72;5532113;32;34292;-73
2023/05/17 11:27:46;;;;;;;8.07;4.07;;;;;;;19.40;100.00;99940.53;5529339;32;34310;-72
2023/05/17 11:31:00;;;;;;;8.93;4.22;;;;;;;19.90;100.00;99946.16;5539617;32;33983;-71
2023/05/17 11:34:06;;;;;;;7.70;4.18;;;;;;;20.39;100.00;99948.22;5548330;32;34810;-72
2023/05/17 11:37:24;;;;;;;9.77;4.30;;;;;;;20.23;100.00;99946.28;5547148;32;33882;-71
2023/05/17 11:40:28;;;;;;;11.57;4.15;;;;;;;19.68;100.00;99953.25;5547498;32;33582;-72
2023/05/17 11:43:34;;;;;;;6.75;3.53;;;;;;;19.93;100.00;99945.69;5547373;32;35132;-72
2023/05/17 11:46:38;;;;;;;5.47;3.50;;;;;;;19.90;100.00;99952.38;5548379;32;34513;-71
2023/05/17 11:49:42;;;;;;;9.35;3.85;;;;;;;19.70;100.00;99957.34;5548031;32;34078;-71
2023/05/17 11:52:47;;;;;;;5.25;3.30;;;;;;;20.74;100.00;99969.59;5548119;32;33832;-76
2023/05/17 11:55:51;;;;;;;7.15;3.47;;;;;;;19.60;100.00;99959.00;5543502;32;34192;-71
2023/05/17 11:58:54;;;;;;;7.87;3.50;;;;;;;19.92;100.00;99962.91;5548256;32;34553;-72
2023/05/17 12:01:58;;;;;;;4.97;3.20;;;;;;;19.33;100.00;99964.03;5543679;32;34836;-72
2023/05/17 12:05:02;;;;;;;6.65;3.70;;;;;;;20.20;100.00;99967.47;5527896;32;33597;-73
2023/05/17 12:08:05;;;;;;;4.82;3.65;;;;;;;19.36;100.00;99964.41;5529025;32;34293;-73
2023/05/17 12:11:11;;;;;;;6.97;3.20;;;;;;;18.92;100.00;99965.78;5528684;32;33552;-73
2023/05/17 12:14:19;;;;;;;7.43;3.40;;;;;;;19.09;100.00;99968.59;5515779;32;33808;-74
2023/05/17 12:17:39;;;;;;;7.62;4.00;;;;;;;19.26;100.00;99960.66;5528851;32;33455;-73
2023/05/17 12:20:54;;;;;;;9.05;4.25;;;;;;;19.33;100.00;99955.94;5515608;32;34616;-75
2023/05/17 12:23:58;;;;;;;4.68;3.20;;;;;;;18.30;100.00;99959.03;5528979;32;33837;-73
2023/05/17 12:27:07;;;;;;;6.62;3.75;;;;;;;19.03;100.00;99964.13;5529327;32;35340;-73
2023/05/17 12:30:14;;;;;;;7.90;3.53;;;;;;;18.89;100.00;99965.41;5528746;32;34789;-77
2023/05/17 12:33:17;;;;;;;5.05;3.60;;;;;;;19.14;100.00;99973.25;5527571;32;33909;-71
2023/05/17 12:36:22;;;;;;;6.20;3.50;;;;;;;18.51;100.00;99968.44;5528288;32;34614;-71
2023/05/17 12:39:25;;;;;;;5.90;3.10;;;;;;;18.54;100.00;99965.34;5528596;32;34628;-72
2023/05/17 12:42:28;;;;;;;3.67;2.80;;;;;;;18.37;100.00;99964.31;5527810;32;33872;-73
2023/05/17 12:45:31;;;;;;;5.47;2.90;;;;;;;18.36;100.00;99968.88;5531636;32;33672;-72
2023/05/17 12:48:38;;;;;;;4.12;3.00;;;;;;;18.51;100.00;99976.50;5543460;32;33431;-70
2023/05/17 12:51:45;;;;;;;6.95;2.95;;;;;;;17.78;100.00;99982.00;5546896;32;34070;-73
2023/05/17 12:54:49;;;;;;;7.55;3.17;;;;;;;17.99;100.00;99978.03;5547849;32;33481;-70
2023/05/17 12:57:53;;;;;;;4.65;2.45;;;;;;;18.33;100.00;99976.56;5548041;32;33783;-72
2023/05/17 13:01:06;;;;;;;7.70;2.72;;;;;;;18.56;100.00;99977.50;5547689;32;33929;-70
2023/05/17 13:04:11;;;;;;;4.20;2.60;;;;;;;18.32;100.00;99991.84;5547639;32;32179;-72
2023/05/17 13:07:22;;;;;;;8.20;3.10;;;;;;;18.43;100.00;99999.16;5545301;32;34300;-69
2023/05/17 13:10:26;;;;;;;5.55;2.97;;;;;;;18.33;100.00;99996.19;5546441;32;33825;-72
2023/05/17 13:13:34;;;;;;;6.32;2.60;;;;;;;19.04;100.00;100006.09;5547949;32;34316;-72
2023/05/17 13:16:39;;;;;;;7.93;2.30;;;;;;;19.90;100.00;100008.91;5547778;32;33420;-72
2023/05/17 13:19:43;;;;;;;9.05;2.55;;;;;;;21.00;100.00;100007.78;5543986;32;34131;-71
2023/05/17 13:22:48;;;;;;;9.32;2.10;;;;;;;20.23;100.00;100004.72;5547507;32;33998;-71
2023/05/17 13:25:55;;;;;;;5.45;2.55;;;;;;;21.99;100.00;100012.22;5547253;32;33518;-73
2023/05/17 13:28:59;;;;;;;4.30;2.20;;;;;;;22.68;91.86;100017.06;5547795;32;33587;-71
2023/05/17 13:32:06;;;;;;;3.47;1.70;;;;;;;25.74;71.24;100016.94;5547593;32;33762;-72
2023/05/17 13:35:30;;;;;;;4.35;2.00;;;;;;;27.80;60.09;100018.53;5547239;32;35076;-70
2023/05/17 13:38:37;;;;;;;4.85;1.70;;;;;;;28.03;57.73;100004.88;5547032;32;34390;-71
2023/05/17 13:41:42;;;;;;;12.48;1.90;;;;;;;29.02;52.56;100002.16;5545993;32;33850;-71
2023/05/17 13:44:46;;;;;;;5.32;1.90;;;;;;;26.23;59.53;99993.37;5535823;32;33748;-71
2023/05/17 13:47:49;;;;;;;5.93;2.00;;;;;;;27.95;56.91;99999.28;5541842;32;33430;-71
2023/05/17 13:50:54;;;;;;;6.72;2.00;;;;;;;28.07;54.94;99999.69;5531886;32;33555;-72
2023/05/17 13:54:01;;;;;;;5.85;2.28;;;;;;;26.94;57.89;99995.66;5536923;32;34837;-73
2023/05/17 13:57:09;;;;;;;10.13;2.47;;;;;;;26.90;56.37;100004.69;5546817;32;33802;-72
2023/05/17 14:00:13;;;;;;;4.40;2.10;;;;;;;26.42;58.50;100003.63;5532958;32;34314;-74
2023/05/17 14:03:20;;;;;;;6.22;2.72;;;;;;;25.86;58.92;100006.56;5531077;32;34533;-72
2023/05/17 14:06:24;;;;;;;4.50;2.10;;;;;;;23.88;65.12;100007.41;5531584;32;33839;-73
2023/05/17 14:09:31;;;;;;;8.20;2.25;;;;;;;25.67;59.43;100008.25;5534723;32;34048;-74
2023/05/17 14:12:36;;;;;;;9.73;2.10;;;;;;;23.94;66.04;100014.50;5532681;32;33954;-68
2023/05/17 14:15:40;;;;;;;9.88;2.30;;;;;;;23.37;69.04;100017.94;5540460;32;33796;-71
2023/05/17 14:18:45;;;;;;;3.97;1.85;;;;;;;22.44;74.38;100017.34;5533632;32;34955;-72